Time;durP1;ratioP1;P1;durP2;ratioP2;P2;SDS_P1;SDS_P2;PMS_P1;PMS_P2;Temp;Humidity;BMP_temperature;BMP_pressure;BME280_temperature;BME280_humidity;BME280_pressure;Samples;Min_cycle;Max_cycle;Signal;HPM_P1;HPM_P2
2022/02/04 00:09:16;;;;;;;8.71;4.77;;;;;;;;;;359599;147;858228;-56
2022/02/04 00:20:53;;;;;;;8.47;4.71;;;;;;;;;;356634;147;860281;-56
2022/02/04 00:23:16;;;;;;;7.75;4.70;;;;;;;;;;349208;151;859790;-56
2022/02/04 00:24:18;;;;;;;9.33;5.31;;;;;;;;;;357407;148;859519;-56
2022/02/04 00:25:41;;;;;;;7.96;4.81;;;;;;;;;;356636;147;858365;-56
2022/02/04 00:26:36;;;;;;;9.77;4.86;;;;;;;;;;354003;148;858215;-56
2022/02/04 00:27:35;;;;;;;8.93;4.46;;;;;;;;;;356184;148;857379;-56
2022/02/04 00:28:47;;;;;;;8.71;5.09;;;;;;;;;;356490;147;864891;-56
2022/02/04 00:31:00;;;;;;;10.29;4.66;;;;;;;;;;357499;147;858261;-56
2022/02/04 00:32:00;;;;;;;10.58;5.24;;;;;;;;;;355250;148;857530;-56
2022/02/04 00:32:59;;;;;;;8.16;4.86;;;;;;;;;;357189;148;857797;-56
2022/02/04 00:34:06;;;;;;;8.75;5.39;;;;;;;;;;358367;147;857933;-57
2022/02/04 00:35:16;;;;;;;10.23;5.24;;;;;;;;;;356800;147;858846;-56
2022/02/04 00:36:15;;;;;;;8.53;5.41;;;;;;;;;;354744;147;857854;-56
2022/02/04 00:38:29;;;;;;;9.04;4.62;;;;;;;;;;358398;148;864925;-55
2022/02/04 00:39:28;;;;;;;9.98;5.69;;;;;;;;;;357346;147;856906;-57
2022/02/04 00:40:30;;;;;;;9.01;5.32;;;;;;;;;;356835;148;856833;-57
2022/02/04 00:41:35;;;;;;;12.99;5.36;;;;;;;;;;357912;148;858501;-58
2022/02/04 00:42:34;;;;;;;11.72;5.38;;;;;;;;;;355972;148;857412;-56
2022/02/04 00:43:37;;;;;;;9.62;5.06;;;;;;;;;;356228;147;859280;-57
2022/02/04 00:44:41;;;;;;;9.88;4.61;;;;;;;;;;357005;147;865182;-57
2022/02/04 00:48:00;;;;;;;9.67;4.73;;;;;;;;;;356923;148;857350;-56
2022/02/04 00:50:06;;;;;;;7.39;4.31;;;;;;;;;;354457;147;858821;-56
2022/02/04 00:53:19;;;;;;;9.67;5.06;;;;;;;;;;358152;147;859109;-56
2022/02/04 00:55:31;;;;;;;9.48;5.09;;;;;;;;;;358360;147;856952;-57
2022/02/04 00:56:36;;;;;;;7.34;4.97;;;;;;;;;;356119;147;857077;-57
2022/02/04 01:25:51;;;;;;;9.65;4.61;;;;;;;;;;348453;152;857735;-57
2022/02/04 01:26:40;;;;;;;11.26;5.10;;;;;;;;;;353363;150;857292;-55
2022/02/04 01:27:46;;;;;;;8.82;4.97;;;;;;;;;;352348;150;857818;-56
2022/02/04 01:28:46;;;;;;;9.32;4.88;;;;;;;;;;352517;150;864889;-56
2022/02/04 01:31:01;;;;;;;10.69;5.57;;;;;;;;;;355212;150;857559;-55
2022/02/04 01:32:05;;;;;;;9.56;5.20;;;;;;;;;;341034;155;859238;-56
2022/02/04 01:33:11;;;;;;;8.69;5.06;;;;;;;;;;338045;155;866858;-55
2022/02/04 01:34:10;;;;;;;9.26;4.83;;;;;;;;;;345987;154;857515;-55
2022/02/04 01:35:12;;;;;;;8.97;4.95;;;;;;;;;;352454;150;857784;-56
2022/02/04 01:36:14;;;;;;;9.35;5.52;;;;;;;;;;353380;150;866578;-55
2022/02/04 01:37:15;;;;;;;8.68;4.76;;;;;;;;;;354187;150;858638;-56
2022/02/04 01:38:17;;;;;;;8.75;4.95;;;;;;;;;;350103;150;865036;-55
2022/02/04 01:39:18;;;;;;;8.09;4.83;;;;;;;;;;353056;150;863231;-56
2022/02/04 01:40:20;;;;;;;9.53;5.05;;;;;;;;;;350403;150;857357;-56
2022/02/04 01:41:22;;;;;;;9.61;5.01;;;;;;;;;;352886;151;857764;-55
2022/02/04 01:42:24;;;;;;;9.21;5.04;;;;;;;;;;352789;150;866429;-56
2022/02/04 01:43:25;;;;;;;9.46;5.12;;;;;;;;;;354839;150;866687;-55
2022/02/04 01:44:27;;;;;;;9.91;4.81;;;;;;;;;;353695;151;862225;-56
2022/02/04 01:45:29;;;;;;;10.15;5.53;;;;;;;;;;352569;150;860491;-55
2022/02/04 01:46:30;;;;;;;10.90;5.12;;;;;;;;;;351519;150;859802;-56
2022/02/04 01:47:32;;;;;;;8.81;5.45;;;;;;;;;;352154;150;865195;-56
2022/02/04 01:48:33;;;;;;;9.74;5.27;;;;;;;;;;352596;150;862334;-56
2022/02/04 01:49:36;;;;;;;7.75;4.77;;;;;;;;;;352564;150;860228;-56
2022/02/04 01:50:38;;;;;;;9.84;5.17;;;;;;;;;;352018;150;857417;-56
2022/02/04 01:51:39;;;;;;;9.70;4.97;;;;;;;;;;354814;150;859323;-56
2022/02/04 01:52:41;;;;;;;8.91;4.55;;;;;;;;;;352268;150;865042;-56
2022/02/04 01:53:42;;;;;;;10.27;5.27;;;;;;;;;;353448;150;864947;-56
2022/02/04 01:54:44;;;;;;;7.83;4.64;;;;;;;;;;353289;151;857342;-56
2022/02/04 01:55:46;;;;;;;8.43;4.79;;;;;;;;;;352656;150;859039;-55
2022/02/04 01:56:47;;;;;;;7.35;4.72;;;;;;;;;;352550;150;860987;-56
2022/02/04 01:57:49;;;;;;;9.73;5.11;;;;;;;;;;350781;150;859426;-56
2022/02/04 01:58:50;;;;;;;7.39;4.32;;;;;;;;;;353174;150;858747;-56
2022/02/04 01:59:52;;;;;;;9.24;4.71;;;;;;;;;;350473;152;865123;-56
2022/02/04 02:00:54;;;;;;;8.57;5.15;;;;;;;;;;351844;150;865023;-56
2022/02/04 02:01:55;;;;;;;9.06;5.45;;;;;;;;;;351717;152;857244;-56
2022/02/04 02:02:57;;;;;;;8.29;4.80;;;;;;;;;;351264;151;863513;-56
2022/02/04 02:04:01;;;;;;;10.60;5.06;;;;;;;;;;351172;151;857371;-56
2022/02/04 02:05:02;;;;;;;8.18;4.74;;;;;;;;;;349804;151;865116;-56
2022/02/04 02:06:09;;;;;;;8.87;4.77;;;;;;;;;;353207;151;858678;-56
2022/02/04 02:07:15;;;;;;;10.71;4.91;;;;;;;;;;350329;149;856878;-56
2022/02/04 02:08:12;;;;;;;9.78;4.89;;;;;;;;;;350979;151;859138;-56
2022/02/04 02:09:14;;;;;;;9.85;4.61;;;;;;;;;;349814;151;857324;-56
2022/02/04 02:10:18;;;;;;;8.59;4.91;;;;;;;;;;351007;150;856414;-56
2022/02/04 02:11:19;;;;;;;8.86;4.61;;;;;;;;;;352229;150;856771;-56
2022/02/04 02:12:23;;;;;;;9.73;4.84;;;;;;;;;;352353;151;857422;-56
2022/02/04 02:14:46;;;;;;;7.86;4.53;;;;;;;;;;351280;151;866845;-56
2022/02/04 02:16:06;;;;;;;7.97;4.79;;;;;;;;;;352635;152;857402;-53
2022/02/04 02:35:30;;;;;;;9.05;4.43;;;;;;;;;;352958;151;857593;-56
2022/02/04 02:36:59;;;;;;;9.09;4.82;;;;;;;;;;349654;151;857292;-55
2022/02/04 02:42:06;;;;;;;12.01;5.27;;;;;;;;;;352022;151;857428;-56
2022/02/04 02:42:49;;;;;;;8.88;5.14;;;;;;;;;;352250;150;858976;-57
2022/02/04 02:44:11;;;;;;;8.58;4.57;;;;;;;;;;349366;151;858021;-58
2022/02/04 02:45:27;;;;;;;9.48;4.68;;;;;;;;;;346442;151;857752;-57
2022/02/04 02:50:41;;;;;;;10.28;5.29;;;;;;;;;;351806;151;858058;-58
2022/02/04 02:51:28;;;;;;;10.39;5.72;;;;;;;;;;345398;152;865243;-56
2022/02/04 02:52:26;;;;;;;9.51;5.17;;;;;;;;;;349288;151;859067;-58
2022/02/04 02:59:18;;;;;;;11.59;5.95;;;;;;;;;;348150;151;865621;-57
2022/02/04 03:00:48;;;;;;;9.68;5.22;;;;;;;;;;344824;153;857654;-57
2022/02/04 03:01:46;;;;;;;11.79;5.44;;;;;;;;;;343352;155;857842;-57
2022/02/04 03:02:45;;;;;;;9.95;5.48;;;;;;;;;;345120;151;858162;-56
2022/02/04 03:03:52;;;;;;;9.52;5.64;;;;;;;;;;344347;153;860078;-56
2022/02/04 03:04:50;;;;;;;10.19;5.49;;;;;;;;;;345094;153;857764;-56
2022/02/04 03:05:51;;;;;;;10.38;5.51;;;;;;;;;;344551;151;857643;-57
2022/02/04 03:06:53;;;;;;;10.33;5.77;;;;;;;;;;345473;151;857370;-56
2022/02/04 03:07:55;;;;;;;10.43;5.96;;;;;;;;;;345075;153;864998;-57
2022/02/04 03:08:56;;;;;;;11.96;6.11;;;;;;;;;;344692;153;865136;-57
2022/02/04 03:09:57;;;;;;;14.16;6.59;;;;;;;;;;344844;151;857626;-56
2022/02/04 03:10:59;;;;;;;11.27;5.99;;;;;;;;;;344695;153;857401;-57
2022/02/04 03:12:01;;;;;;;10.52;5.96;;;;;;;;;;344650;153;865184;-58
2022/02/04 03:13:03;;;;;;;9.77;5.31;;;;;;;;;;344408;151;865253;-57
2022/02/04 03:14:04;;;;;;;8.35;5.38;;;;;;;;;;344762;153;866270;-57
2022/02/04 03:15:06;;;;;;;10.51;5.39;;;;;;;;;;345776;151;858302;-57
2022/02/04 03:16:11;;;;;;;8.13;5.51;;;;;;;;;;348486;146;863566;-57
2022/02/04 03:17:14;;;;;;;10.13;5.45;;;;;;;;;;352071;149;858875;-57
2022/02/04 03:18:23;;;;;;;9.54;5.00;;;;;;;;;;352142;147;858592;-56
2022/02/04 03:19:20;;;;;;;8.22;5.06;;;;;;;;;;353179;150;856952;-56
2022/02/04 03:20:23;;;;;;;7.80;3.86;;;;;;;;;;352320;149;858790;-56
2022/02/04 03:21:36;;;;;;;9.14;4.94;;;;;;;;;;351793;149;858057;-56
2022/02/04 03:22:31;;;;;;;8.82;5.35;;;;;;;;;;351176;149;864987;-58
2022/02/04 03:23:36;;;;;;;11.67;5.56;;;;;;;;;;353553;149;857288;-56
2022/02/04 03:24:36;;;;;;;10.23;5.42;;;;;;;;;;353043;149;865440;-57
2022/02/04 03:25:41;;;;;;;10.15;5.51;;;;;;;;;;351189;151;857324;-56
2022/02/04 03:26:51;;;;;;;8.44;5.44;;;;;;;;;;352666;150;857273;-57
2022/02/04 03:27:54;;;;;;;8.83;4.97;;;;;;;;;;352060;149;866837;-57
2022/02/04 03:28:53;;;;;;;10.36;5.31;;;;;;;;;;352231;151;856208;-56
2022/02/04 03:30:05;;;;;;;10.00;5.23;;;;;;;;;;355681;150;857349;-57
2022/02/04 03:31:01;;;;;;;9.72;5.32;;;;;;;;;;354110;149;865282;-57
2022/02/04 03:32:08;;;;;;;9.06;4.44;;;;;;;;;;354188;149;857552;-57
2022/02/04 03:33:08;;;;;;;11.06;4.89;;;;;;;;;;354006;149;866665;-57
2022/02/04 03:34:10;;;;;;;11.19;5.34;;;;;;;;;;351421;150;859359;-57
2022/02/04 03:35:15;;;;;;;13.30;5.71;;;;;;;;;;351715;149;858776;-57
2022/02/04 03:36:16;;;;;;;9.87;5.14;;;;;;;;;;351989;150;865114;-57
2022/02/04 03:37:18;;;;;;;9.49;5.23;;;;;;;;;;352977;149;856916;-57
2022/02/04 03:38:19;;;;;;;10.51;5.02;;;;;;;;;;353251;149;865303;-55
2022/02/04 03:39:21;;;;;;;9.48;5.29;;;;;;;;;;352826;149;859950;-56
2022/02/04 03:40:23;;;;;;;11.48;5.70;;;;;;;;;;354364;150;866499;-56
2022/02/04 03:41:25;;;;;;;8.45;5.24;;;;;;;;;;352395;148;857735;-56
2022/02/04 03:42:27;;;;;;;8.68;5.36;;;;;;;;;;350151;149;865846;-56
2022/02/04 03:43:28;;;;;;;9.25;4.73;;;;;;;;;;352072;148;863811;-56
2022/02/04 03:44:32;;;;;;;9.15;4.86;;;;;;;;;;352275;150;859232;-55
2022/02/04 03:45:33;;;;;;;9.16;5.03;;;;;;;;;;352872;149;865996;-55
2022/02/04 03:46:35;;;;;;;7.49;4.76;;;;;;;;;;351701;150;857318;-56
2022/02/04 03:47:37;;;;;;;9.09;4.94;;;;;;;;;;353218;148;866634;-56
2022/02/04 03:48:38;;;;;;;10.05;4.93;;;;;;;;;;351134;148;856351;-55
2022/02/04 03:49:40;;;;;;;11.66;4.93;;;;;;;;;;353703;149;859180;-57
2022/02/04 03:50:41;;;;;;;9.39;4.57;;;;;;;;;;353512;150;866141;-56
2022/02/04 03:51:43;;;;;;;9.08;4.93;;;;;;;-7.95;0.00;41074.21;353223;148;863906;-56
2022/02/04 03:52:45;;;;;;;11.53;5.84;;;;;;;;;;350801;149;857685;-56
2022/02/04 03:53:46;;;;;;;8.19;4.76;;;;;;;;;;354376;148;865832;-57
2022/02/04 03:54:48;;;;;;;8.42;5.20;;;;;;;;;;354709;148;865752;-56
2022/02/04 03:55:49;;;;;;;10.16;5.76;;;;;;;;;;352002;149;865418;-56
2022/02/04 03:56:51;;;;;;;8.94;5.43;;;;;;;;;;354591;151;857286;-57
2022/02/04 03:57:52;;;;;;;8.12;4.77;;;;;;;;;;355046;148;865008;-56
2022/02/04 03:58:54;;;;;;;9.91;5.12;;;;;;;;;;349689;148;857961;-56
2022/02/04 03:59:55;;;;;;;8.64;5.59;;;;;;;;;;351498;149;857448;-57
2022/02/04 04:00:57;;;;;;;9.30;5.31;;;;;;;;;;352577;149;860935;-57
2022/02/04 04:01:59;;;;;;;9.60;5.03;;;;;;;;;;353753;149;862603;-56
2022/02/04 04:03:01;;;;;;;8.61;4.07;;;;;;;;;;352148;149;857379;-55
2022/02/04 04:04:03;;;;;;;9.01;6.08;;;;;;;;;;354809;150;865038;-56
2022/02/04 04:05:04;;;;;;;9.35;4.94;;;;;;;;;;354837;150;857405;-55
2022/02/04 04:06:07;;;;;;;8.54;4.50;;;;;;;;;;353051;149;857259;-56
2022/02/04 04:07:08;;;;;;;8.25;5.23;;;;;;;;;;352968;150;857115;-55
2022/02/04 04:08:10;;;;;;;10.88;5.00;;;;;;;;;;352866;151;859288;-56
2022/02/04 04:09:12;;;;;;;10.56;5.35;;;;;;;;;;352879;148;865604;-56
2022/02/04 04:10:20;;;;;;;10.13;5.27;;;;;;;;;;352142;149;856384;-56
2022/02/04 04:11:18;;;;;;;8.81;4.72;;;;;;;;;;354748;149;864963;-56
2022/02/04 04:12:20;;;;;;;9.65;5.43;;;;;;;;;;351200;149;859042;-58
2022/02/04 04:13:22;;;;;;;6.07;4.29;;;;;;;;;;350764;149;864803;-56
2022/02/04 04:14:23;;;;;;;9.74;5.54;;;;;;;;;;355129;149;856416;-56
2022/02/04 04:15:25;;;;;;;9.19;5.44;;;;;;;;;;350458;151;865035;-57
2022/02/04 04:16:27;;;;;;;9.15;5.22;;;;;;;;;;351322;149;864107;-57
2022/02/04 04:17:36;;;;;;;8.74;5.41;;;;;;;;;;354423;150;865048;-56
2022/02/04 04:18:32;;;;;;;5.10;3.18;;;;;;;;;;354274;150;866888;-56
2022/02/04 04:19:33;;;;;;;9.94;4.53;;;;;;;;;;352630;148;857203;-56
2022/02/04 04:20:35;;;;;;;10.11;4.95;;;;;;;;;;350067;149;859116;-57
2022/02/04 04:21:36;;;;;;;8.06;5.41;;;;;;;;;;355892;149;866098;-57
2022/02/04 04:22:38;;;;;;;15.29;5.49;;;;;;;;;;351075;150;865195;-56
2022/02/04 04:23:40;;;;;;;11.95;4.15;;;;;;;;;;351817;149;864885;-58
2022/02/04 04:24:41;;;;;;;10.35;4.98;;;;;;;;;;350865;147;857451;-57
2022/02/04 04:25:44;;;;;;;8.96;4.84;;;;;;;;;;353794;150;858319;-57
2022/02/04 04:26:45;;;;;;;9.73;5.29;;;;;;;;;;353337;148;866427;-56
2022/02/04 04:27:47;;;;;;;10.37;5.73;;;;;;;;;;352764;149;865036;-57
2022/02/04 04:28:49;;;;;;;8.95;5.06;;;;;;;;;;352718;151;866250;-56
2022/02/04 04:29:51;;;;;;;9.33;5.13;;;;;;;;;;353745;148;858554;-57
2022/02/04 04:30:53;;;;;;;9.46;5.20;;;;;;;;;;350086;149;864829;-56
2022/02/04 04:31:54;;;;;;;9.01;5.11;;;;;;;;;;352506;149;859239;-57
2022/02/04 04:32:57;;;;;;;10.66;5.06;;;;;;;;;;355972;150;865153;-58
2022/02/04 04:33:58;;;;;;;5.70;3.74;;;;;;;;;;354583;148;857438;-57
2022/02/04 04:35:00;;;;;;;8.34;5.33;;;;;;;;;;340755;154;858863;-57
2022/02/04 04:36:01;;;;;;;10.18;4.80;;;;;;;;;;347325;153;865053;-57
2022/02/04 04:37:04;;;;;;;8.76;4.79;;;;;;;;;;340861;155;865298;-55
2022/02/04 04:38:24;;;;;;;8.78;4.78;;;;;;;;;;345225;151;865367;-57
2022/02/04 04:39:25;;;;;;;10.07;5.37;;;;;;;;;;339820;155;857366;-56
2022/02/04 04:40:35;;;;;;;9.06;5.42;;;;;;;;;;344093;151;857411;-57
2022/02/04 04:44:46;;;;;;;9.48;5.17;;;;;;;;;;341002;152;859907;-56
2022/02/04 05:25:59;;;;;;;10.32;5.25;;;;;;;;;;327234;162;866497;-56
2022/02/04 06:23:05;;;;;;;2.35;1.85;;;;;;;;;;363880;144;856865;-58
2022/02/04 06:24:06;;;;;;;10.05;5.38;;;;;;;;;;367821;144;864061;-59
2022/02/04 06:25:08;;;;;;;6.29;3.46;;;;;;;;;;362134;145;864090;-58
2022/02/04 06:26:11;;;;;;;3.89;2.98;;;;;;;;;;362567;145;863930;-56
2022/02/04 06:27:12;;;;;;;11.12;4.96;;;;;;;;;;363279;144;856440;-59
2022/02/04 06:28:15;;;;;;;6.49;3.70;;;;;;;;;;362608;145;864241;-58
2022/02/04 06:29:17;;;;;;;10.80;4.49;;;;;;;;;;362529;145;863722;-58
2022/02/04 06:30:19;;;;;;;8.77;4.91;;;;;;;;;;363263;145;856248;-58
2022/02/04 06:31:20;;;;;;;5.46;3.51;;;;;;;;;;365685;145;856191;-58
2022/02/04 06:32:23;;;;;;;9.95;5.32;;;;;;;;;;363281;145;864079;-58
2022/02/04 06:33:26;;;;;;;4.95;2.51;;;;;;;;;;350940;148;856423;-60
2022/02/04 06:34:28;;;;;;;14.11;6.36;;;;;;;;;;356881;147;857231;-59
2022/02/04 06:35:31;;;;;;;9.30;5.00;;;;;;;;;;365240;144;864296;-61
2022/02/04 06:36:32;;;;;;;11.16;5.31;;;;;;;;;;366413;144;863990;-59
2022/02/04 06:37:34;;;;;;;10.20;6.21;;;;;;;;;;366788;144;856353;-56
2022/02/04 06:38:36;;;;;;;6.75;4.48;;;;;;;;;;366165;144;865209;-60
2022/02/04 06:39:37;;;;;;;8.73;5.19;;;;;;;;;;366155;144;857020;-58
2022/02/04 06:40:39;;;;;;;7.04;4.30;;;;;;;;;;366638;144;863745;-61
2022/02/04 06:41:41;;;;;;;12.66;6.16;;;;;;;;;;365321;144;864223;-56
2022/02/04 06:42:42;;;;;;;9.57;5.42;;;;;;;;;;365784;144;856638;-57
2022/02/04 06:43:44;;;;;;;10.35;5.69;;;;;;;;;;367479;144;863851;-56
2022/02/04 06:44:45;;;;;;;8.02;4.34;;;;;;;;;;365397;144;864240;-60
2022/02/04 06:45:47;;;;;;;10.89;6.21;;;;;;;;;;365436;144;864102;-59
2022/02/04 06:46:48;;;;;;;11.51;6.81;;;;;;;;;;365446;144;864462;-59
2022/02/04 06:47:50;;;;;;;11.83;6.59;;;;;;;;;;366116;144;864133;-59
2022/02/04 06:48:51;;;;;;;12.20;6.35;;;;;;;;;;365193;144;864079;-59
2022/02/04 06:49:53;;;;;;;11.48;6.19;;;;;;;;;;366345;144;856241;-59
2022/02/04 06:50:54;;;;;;;11.91;5.56;;;;;;;;;;366939;144;864491;-59
2022/02/04 06:51:56;;;;;;;12.83;6.80;;;;;;;;;;365887;144;864796;-59
2022/02/04 06:52:58;;;;;;;6.99;4.98;;;;;;;;;;365340;144;863878;-60
2022/02/04 06:53:59;;;;;;;4.94;3.58;;;;;;;;;;367248;144;861556;-60
2022/02/04 06:55:01;;;;;;;15.41;6.91;;;;;;;;;;367086;144;863916;-57
2022/02/04 06:56:02;;;;;;;13.85;6.95;;;;;;;;;;368649;144;856705;-56
2022/02/04 06:57:04;;;;;;;12.58;6.64;;;;;;;;;;365498;144;864033;-56
2022/02/04 06:58:07;;;;;;;12.09;5.18;;;;;;;;;;367272;144;864671;-55
2022/02/04 06:59:08;;;;;;;15.19;7.84;;;;;;;;;;366286;144;864457;-56
2022/02/04 07:00:11;;;;;;;11.95;5.65;;;;;;;;;;365307;145;856694;-57
2022/02/04 07:01:12;;;;;;;14.66;6.89;;;;;;;;;;366693;144;856871;-56
2022/02/04 07:02:14;;;;;;;11.23;6.59;;;;;;;;;;367181;144;856378;-56
2022/02/04 07:03:16;;;;;;;16.89;8.55;;;;;;;;;;366084;144;864005;-57
2022/02/04 07:04:17;;;;;;;14.54;7.82;;;;;;;;;;366205;144;856849;-56
2022/02/04 07:05:20;;;;;;;11.05;4.97;;;;;;;;;;367640;144;863912;-57
2022/02/04 07:06:24;;;;;;;16.21;8.42;;;;;;;;;;365179;144;864011;-59
2022/02/04 07:07:29;;;;;;;12.06;7.14;;;;;;;;;;365326;144;863923;-58
2022/02/04 07:08:37;;;;;;;13.16;7.09;;;;;;;;;;365670;144;864639;-60
2022/02/04 07:09:45;;;;;;;14.74;8.03;;;;;;;;;;365615;144;864205;-59
2022/02/04 07:13:29;;;;;;;16.01;7.75;;;;;;;;;;365933;144;856680;-58
2022/02/04 07:14:43;;;;;;;11.74;5.92;;;;;;;;;;365138;145;856589;-56
2022/02/04 07:19:44;;;;;;;13.42;7.55;;;;;;;;;;368389;144;856202;-56
2022/02/04 07:20:24;;;;;;;;;;;;;;;;;;368378;144;855656;-57
2022/02/04 07:21:26;;;;;;;8.91;4.75;;;;;;;;;;365388;144;856616;-56
2022/02/04 07:22:30;;;;;;;8.28;4.99;;;;;;;;;;366067;144;856945;-56
2022/02/04 07:23:31;;;;;;;10.61;5.94;;;;;;;;;;366548;144;864724;-57
2022/02/04 07:24:33;;;;;;;11.66;6.16;;;;;;;;;;366508;144;856639;-58
2022/02/04 07:25:35;;;;;;;13.17;6.11;;;;;;;;;;361104;147;863934;-57
2022/02/04 07:26:36;;;;;;;4.16;2.68;;;;;;;;;;358831;147;856391;-60
2022/02/04 07:27:40;;;;;;;12.49;5.57;;;;;;;;;;365948;144;863823;-57
2022/02/04 07:28:41;;;;;;;13.98;7.01;;;;;;;;;;355159;150;856212;-58
2022/02/04 07:29:46;;;;;;;13.41;6.72;;;;;;;;;;352677;150;856781;-58
2022/02/04 07:30:47;;;;;;;11.46;6.26;;;;;;;;;;356240;147;856672;-58
2022/02/04 07:31:50;;;;;;;13.09;5.95;;;;;;;;;;354303;149;856162;-57
2022/02/04 07:33:12;;;;;;;9.57;4.61;;;;;;;;;;354924;149;856852;-59
2022/02/04 07:34:19;;;;;;;14.15;6.76;;;;;;;;;;351871;149;856724;-58
2022/02/04 07:41:38;;;;;;;12.94;7.35;;;;;;;;;;351134;150;856461;-60
2022/02/04 07:42:40;;;;;;;12.49;6.07;;;;;;;;;;352172;149;856575;-58
2022/02/04 07:43:41;;;;;;;11.81;6.04;;;;;;;;;;355588;150;856272;-58
2022/02/04 07:44:43;;;;;;;15.72;6.91;;;;;;;;;;352979;149;864683;-58
2022/02/04 07:45:44;;;;;;;9.69;5.81;;;;;;;;;;353261;147;856086;-58
2022/02/04 07:46:46;;;;;;;11.76;6.33;;;;;;;;;;355558;148;862144;-58
2022/02/04 07:47:48;;;;;;;10.78;5.96;;;;;;;;;;356482;148;864007;-58
2022/02/04 07:48:50;;;;;;;12.05;6.84;;;;;;;;;;356551;147;863906;-58
2022/02/04 07:49:52;;;;;;;14.17;6.87;;;;;;;;;;358360;147;856291;-58
2022/02/04 07:50:53;;;;;;;13.77;6.65;;;;;;;;;;356312;149;864173;-58
2022/02/04 07:51:55;;;;;;;13.06;7.29;;;;;;;;;;354684;149;856230;-58
2022/02/04 07:52:57;;;;;;;11.24;6.69;;;;;;;;;;354269;148;864062;-58
2022/02/04 07:53:58;;;;;;;14.80;7.96;;;;;;;;;;355482;149;856684;-61
2022/02/04 07:55:00;;;;;;;12.38;6.16;;;;;;;;;;354110;149;863937;-61
2022/02/04 07:56:02;;;;;;;12.71;6.34;;;;;;;;;;354837;148;856501;-58
2022/02/04 07:57:04;;;;;;;13.44;7.17;;;;;;;;;;355201;147;856362;-56
2022/02/04 07:58:05;;;;;;;14.18;7.93;;;;;;;;;;354325;149;864135;-58
2022/02/04 07:59:09;;;;;;;14.49;7.62;;;;;;;;;;355058;149;864182;-58
2022/02/04 08:00:14;;;;;;;13.36;7.42;;;;;;;;;;354226;148;864526;-58
2022/02/04 08:01:19;;;;;;;14.24;7.58;;;;;;;;;;354429;148;856464;-58
2022/02/04 08:02:18;;;;;;;15.63;7.98;;;;;;;;;;355790;148;856690;-59
2022/02/04 08:03:33;;;;;;;15.26;7.74;;;;;;;;;;354675;148;856763;-60
2022/02/04 08:04:35;;;;;;;13.29;6.76;;;;;;;;;;354809;149;864090;-59
2022/02/04 08:05:36;;;;;;;13.93;7.62;;;;;;;;;;353669;149;856757;-61
2022/02/04 08:06:42;;;;;;;13.74;7.75;;;;;;;;;;354952;148;857142;-59
2022/02/04 08:10:10;;;;;;;15.49;7.66;;;;;;;;;;353924;149;856455;-58
2022/02/04 08:11:17;;;;;;;16.38;6.85;;;;;;;;;;354196;147;857838;-59
2022/02/04 08:13:35;;;;;;;15.88;8.15;;;;;;;;;;356304;149;856416;-58
2022/02/04 08:17:10;;;;;;;15.84;7.04;;;;;;;;;;357133;149;856537;-58
2022/02/04 08:19:24;;;;;;;17.98;8.18;;;;;;;;;;353889;148;856764;-58
2022/02/04 08:23:15;;;;;;;16.08;8.73;;;;;;;;;;355223;147;857061;-60
2022/02/04 08:24:22;;;;;;;16.77;7.82;;;;;;;;;;353771;149;856391;-61
2022/02/04 08:28:59;;;;;;;16.39;7.81;;;;;;;;;;355649;149;856667;-60
2022/02/04 08:30:17;;;;;;;14.16;7.70;;;;;;;;;;351796;149;856792;-61
2022/02/04 08:31:20;;;;;;;14.84;7.73;;;;;;;;;;353135;149;857366;-61
2022/02/04 08:48:12;;;;;;;12.71;6.41;;;;;;;;;;364989;144;856774;-61
2022/02/04 08:51:53;;;;;;;10.67;6.76;;;;;;;;;;350781;150;857278;-62
2022/02/04 08:53:58;;;;;;;12.22;7.36;;;;;;;;;;367108;144;857096;-60
2022/02/04 08:55:05;;;;;;;13.37;6.73;;;;;;;;;;365476;144;857068;-60
2022/02/04 08:56:03;;;;;;;12.03;6.34;;;;;;;;;;366103;144;856632;-61
2022/02/04 08:57:23;;;;;;;12.99;7.33;;;;;;;;;;366424;144;856436;-60
2022/02/04 08:59:56;;;;;;;15.68;8.42;;;;;;;;;;366424;144;856496;-58
2022/02/04 09:00:50;;;;;;;18.02;8.37;;;;;;;;;;364715;144;857120;-57
2022/02/04 09:01:54;;;;;;;12.66;7.09;;;;;;;;;;364981;144;857182;-58
2022/02/04 09:03:01;;;;;;;14.47;7.82;;;;;;;;;;366231;144;863987;-60
2022/02/04 09:04:15;;;;;;;14.04;7.38;;;;;;;;;;364733;144;863869;-61
2022/02/04 09:05:16;;;;;;;13.01;8.12;;;;;;;;;;365210;144;857124;-62
2022/02/04 09:06:17;;;;;;;15.94;8.79;;;;;;;;;;366175;144;856786;-58
2022/02/04 09:07:19;;;;;;;16.20;7.84;;;;;;;;;;365767;144;864456;-58
2022/02/04 09:08:26;;;;;;;12.42;7.31;;;;;;;;;;366523;144;856170;-62
2022/02/04 09:09:46;;;;;;;13.54;6.97;;;;;;;;;;366315;144;856251;-61
2022/02/04 09:10:30;;;;;;;13.47;7.55;;;;;;;;;;365325;144;856245;-62
2022/02/04 09:19:08;;;;;;;14.87;7.07;;;;;;;;;;365179;144;856795;-61
2022/02/04 09:20:11;;;;;;;12.72;7.60;;;;;;;;;;367050;144;857105;-60
2022/02/04 09:21:24;;;;;;;10.79;7.18;;;;;;;;;;366638;144;856554;-60
2022/02/04 09:22:26;;;;;;;16.69;8.96;;;;;;;;;;358961;147;864125;-60
2022/02/04 09:23:22;;;;;;;15.54;8.28;;;;;;;;;;359383;144;856487;-60
2022/02/04 09:24:24;;;;;;;17.65;8.94;;;;;;;;;;366098;144;856648;-60
2022/02/04 09:25:27;;;;;;;18.38;8.82;;;;;;;;;;365357;144;856523;-62
2022/02/04 09:26:28;;;;;;;14.91;8.27;;;;;;;;;;365486;144;864095;-62
2022/02/04 09:27:30;;;;;;;16.07;9.09;;;;;;;;;;366457;144;864659;-63
2022/02/04 09:28:32;;;;;;;13.19;8.20;;;;;;;;;;365162;144;856289;-61
2022/02/04 09:29:34;;;;;;;13.25;7.51;;;;;;;;;;367793;144;864103;-61
2022/02/04 09:30:35;;;;;;;13.08;7.46;;;;;;;;;;365631;144;857147;-65
2022/02/04 09:31:37;;;;;;;15.43;8.05;;;;;;;;;;365581;144;863908;-63
2022/02/04 09:32:39;;;;;;;14.76;7.31;;;;;;;;;;365352;144;856397;-60
2022/02/04 09:33:41;;;;;;;15.35;8.05;;;;;;;;;;365369;144;863826;-64
2022/02/04 09:34:42;;;;;;;18.07;7.84;;;;;;;;;;367137;144;856760;-64
2022/02/04 09:35:44;;;;;;;12.88;6.94;;;;;;;;;;365949;144;863900;-63
2022/02/04 09:36:45;;;;;;;14.86;8.21;;;;;;;;;;368546;144;864286;-64
2022/02/04 09:37:48;;;;;;;13.85;8.20;;;;;;;;;;365169;144;856754;-62
2022/02/04 09:38:49;;;;;;;12.60;7.03;;;;;;;;;;365805;144;856448;-63
2022/02/04 09:39:51;;;;;;;15.54;8.40;;;;;;;;;;367565;144;856203;-63
2022/02/04 09:40:53;;;;;;;12.64;7.75;;;;;;;;;;365887;144;856451;-65
2022/02/04 09:41:55;;;;;;;13.79;7.80;;;;;;;;;;366836;144;856665;-60
2022/02/04 09:42:56;;;;;;;12.70;6.01;;;;;;;;;;367268;144;856700;-60
2022/02/04 09:43:58;;;;;;;13.89;7.05;;;;;;;;;;365223;147;856106;-60
2022/02/04 09:44:59;;;;;;;13.05;7.51;;;;;;;;;;366038;144;863982;-59
2022/02/04 09:46:01;;;;;;;13.94;7.84;;;;;;;;;;365860;144;856711;-60
2022/02/04 09:47:03;;;;;;;9.68;5.29;;;;;;;;;;368148;144;864436;-61
2022/02/04 09:48:06;;;;;;;10.80;5.79;;;;;;;;;;366551;144;856964;-61
2022/02/04 09:49:17;;;;;;;15.53;6.96;;;;;;;;;;365757;144;865128;-62
2022/02/04 09:50:15;;;;;;;14.09;7.63;;;;;;;;;;365702;144;856341;-62
2022/02/04 09:51:20;;;;;;;16.09;6.78;;;;;;;;;;367164;144;856685;-60
2022/02/04 10:06:58;;;;;;;10.95;5.78;;;;;;;;;;365640;144;856969;-61
2022/02/04 10:08:32;;;;;;;11.18;6.54;;;;;;;;;;365987;144;856802;-61
2022/02/04 10:14:00;;;;;;;10.21;6.14;;;;;;;;;;365531;144;856312;-60
2022/02/04 10:15:15;;;;;;;8.57;4.76;;;;;;;;;;365026;144;856797;-61
2022/02/04 10:17:13;;;;;;;10.12;5.89;;;;;;;;;;365207;145;857124;-61
2022/02/04 10:18:27;;;;;;;9.85;5.29;;;;;;;;;;367683;144;864673;-60
2022/02/04 10:19:27;;;;;;;6.00;3.54;;;;;;;;;;363772;144;863831;-61
2022/02/04 10:20:26;;;;;;;6.18;4.21;;;;;;;;;;360446;147;856884;-60
2022/02/04 10:21:28;;;;;;;8.85;4.95;;;;;;;;;;360166;144;856678;-61
2022/02/04 10:22:32;;;;;;;7.84;5.07;;;;;;;;;;366736;144;856587;-60
2022/02/04 10:23:50;;;;;;;10.54;5.94;;;;;;;;;;365487;144;856635;-62
2022/02/04 10:25:04;;;;;;;10.21;5.81;;;;;;;;;;364986;145;856732;-61
2022/02/04 10:26:10;;;;;;;10.87;5.63;;;;;;;;;;367254;144;856366;-61
2022/02/04 10:27:18;;;;;;;7.64;4.88;;;;;;;;;;366592;144;856767;-62
2022/02/04 10:28:27;;;;;;;9.05;5.21;;;;;;;;;;367081;144;856731;-61
2022/02/04 10:29:29;;;;;;;9.65;5.84;;;;;;;;;;369159;144;856685;-61
2022/02/04 10:30:32;;;;;;;10.23;5.66;;;;;;;;;;366068;144;857024;-61
2022/02/04 10:31:33;;;;;;;9.83;5.61;;;;;;;;;;365463;144;864137;-61
2022/02/04 10:32:37;;;;;;;9.74;4.98;;;;;;;;;;367581;144;856247;-61
2022/02/04 10:33:57;;;;;;;9.61;5.81;;;;;;;;;;365162;144;863951;-61
2022/02/04 10:34:59;;;;;;;;;;;;;;;;;;369148;144;855534;-61
2022/02/04 10:36:05;;;;;;;7.21;4.58;;;;;;;;;;366307;144;856243;-62
2022/02/04 10:37:22;;;;;;;5.85;3.50;;;;;;;;;;365394;144;856929;-62